Time;durP1;ratioP1;P1;durP2;ratioP2;P2;SDS_P1;SDS_P2;PMS_P1;PMS_P2;Temp;Humidity;BMP_temperature;BMP_pressure;BME280_temperature;BME280_humidity;BME280_pressure;Samples;Min_cycle;Max_cycle;Signal;HPM_P1;HPM_P2
2021/05/15 00:01:26;;;;;;;5.28;1.60;;;13.80;99.90;;;;;;5091045;28;20201;-71
2021/05/15 00:03:53;;;;;;;3.60;2.13;;;13.70;99.90;;;;;;5090720;28;20605;-71
2021/05/15 00:06:19;;;;;;;3.78;1.90;;;13.80;99.90;;;;;;5091401;28;20233;-71
2021/05/15 00:08:47;;;;;;;4.68;1.73;;;13.70;99.90;;;;;;5091650;28;20618;-71
2021/05/15 00:11:13;;;;;;;6.72;1.92;;;13.70;99.90;;;;;;5090740;28;20205;-71
2021/05/15 00:13:40;;;;;;;9.52;2.15;;;13.70;99.90;;;;;;5091604;28;20266;-71
2021/05/15 00:16:06;;;;;;;5.35;2.25;;;13.70;99.90;;;;;;5090822;28;20210;-71
2021/05/15 00:18:33;;;;;;;4.00;2.15;;;13.60;99.90;;;;;;5091288;28;20221;-74
2021/05/15 00:21:00;;;;;;;4.25;2.22;;;13.60;99.90;;;;;;5090749;28;20205;-72
2021/05/15 00:23:26;;;;;;;6.63;2.35;;;13.60;99.90;;;;;;5090590;28;20661;-72
2021/05/15 00:25:54;;;;;;;8.82;3.15;;;13.60;99.90;;;;;;5090273;28;20410;-72
2021/05/15 00:28:20;;;;;;;8.25;2.10;;;13.50;99.90;;;;;;5090943;28;20686;-76
2021/05/15 00:30:47;;;;;;;7.20;2.13;;;13.50;99.90;;;;;;5091071;28;20216;-74
2021/05/15 00:33:13;;;;;;;5.82;2.95;;;13.50;99.90;;;;;;5090066;28;20216;-76
2021/05/15 00:35:40;;;;;;;4.88;1.98;;;13.50;99.90;;;;;;5090823;28;20235;-76
2021/05/15 00:38:06;;;;;;;5.20;2.33;;;13.40;99.90;;;;;;5090597;28;20209;-78
2021/05/15 00:40:33;;;;;;;8.18;3.15;;;13.30;99.90;;;;;;5090924;28;20217;-78
2021/05/15 00:43:00;;;;;;;6.10;2.25;;;13.10;99.90;;;;;;5090641;28;20205;-74
2021/05/15 00:45:27;;;;;;;5.25;2.53;;;13.10;99.90;;;;;;5091050;28;20236;-71
2021/05/15 00:47:53;;;;;;;7.97;3.60;;;13.10;99.90;;;;;;5090411;28;20209;-71
2021/05/15 00:50:19;;;;;;;5.65;2.75;;;13.10;99.90;;;;;;5090805;28;20235;-71
2021/05/15 00:52:47;;;;;;;5.80;2.85;;;13.20;99.90;;;;;;5090727;28;20572;-73
2021/05/15 00:55:15;;;;;;;7.70;2.42;;;13.20;99.90;;;;;;5090320;28;20210;-72
2021/05/15 00:57:42;;;;;;;3.40;2.67;;;13.30;99.90;;;;;;5090454;28;20270;-72
2021/05/15 01:00:13;;;;;;;4.80;2.35;;;13.30;99.90;;;;;;5090262;28;20617;-72
2021/05/15 01:02:39;;;;;;;3.80;2.20;;;13.30;99.90;;;;;;5090668;28;20216;-74
2021/05/15 01:05:08;;;;;;;6.47;2.70;;;13.30;99.90;;;;;;5090017;28;20201;-72
2021/05/15 01:07:35;;;;;;;6.03;2.42;;;13.20;99.90;;;;;;5090826;28;20233;-73
2021/05/15 01:10:01;;;;;;;3.20;2.05;;;13.10;99.90;;;;;;5075834;28;20201;-72
2021/05/15 01:12:28;;;;;;;8.07;1.77;;;13.10;99.90;;;;;;5090454;28;20205;-72
2021/05/15 01:14:54;;;;;;;3.42;2.00;;;13.20;99.90;;;;;;5089727;28;20636;-72
2021/05/15 01:17:22;;;;;;;6.97;1.90;;;13.20;99.90;;;;;;5090414;28;20766;-75
2021/05/15 01:19:48;;;;;;;5.70;2.08;;;13.20;99.90;;;;;;5090247;28;20205;-72
2021/05/15 01:22:16;;;;;;;3.08;2.45;;;13.10;99.90;;;;;;5090477;28;20206;-71
2021/05/15 01:24:45;;;;;;;3.88;2.00;;;13.10;99.90;;;;;;5090379;28;20274;-71
2021/05/15 01:27:13;;;;;;;6.28;1.83;;;13.10;99.90;;;;;;5082305;28;20245;-72
2021/05/15 01:29:41;;;;;;;11.63;3.05;;;13.20;99.90;;;;;;5090304;28;20215;-72
2021/05/15 01:32:07;;;;;;;9.30;1.95;;;13.10;99.90;;;;;;5089964;28;20205;-72
2021/05/15 01:34:34;;;;;;;6.25;2.28;;;13.10;99.90;;;;;;5089983;28;20212;-72
2021/05/15 01:37:00;;;;;;;2.60;2.33;;;13.10;99.90;;;;;;5067076;28;20206;-72
2021/05/15 01:39:28;;;;;;;5.50;2.13;;;13.10;99.90;;;;;;5069995;28;20682;-73
2021/05/15 01:41:55;;;;;;;6.03;1.92;;;13.10;99.90;;;;;;5069588;28;20213;-72
2021/05/15 01:44:21;;;;;;;4.07;2.15;;;13.10;99.90;;;;;;5071377;28;20294;-73
2021/05/15 01:46:47;;;;;;;2.95;1.83;;;13.10;99.90;;;;;;5073687;28;20779;-72
2021/05/15 01:49:14;;;;;;;4.05;2.13;;;13.00;99.90;;;;;;5073117;28;20210;-72
2021/05/15 01:51:40;;;;;;;5.03;1.67;;;13.00;99.90;;;;;;5073661;28;20704;-72
2021/05/15 01:54:07;;;;;;;7.05;2.28;;;13.00;99.90;;;;;;5072837;28;20677;-72
2021/05/15 01:56:34;;;;;;;3.95;2.80;;;13.00;99.90;;;;;;5073652;28;20624;-72
2021/05/15 01:59:01;;;;;;;4.65;2.28;;;12.90;99.90;;;;;;5073453;28;20206;-73
2021/05/15 02:01:28;;;;;;;6.85;2.55;;;12.90;99.90;;;;;;5073738;28;20217;-72
2021/05/15 02:03:54;;;;;;;4.28;2.22;;;13.00;99.90;;;;;;5072585;28;20750;-73
2021/05/15 02:06:21;;;;;;;4.43;2.35;;;13.10;99.90;;;;;;5073190;28;20279;-72
2021/05/15 02:08:49;;;;;;;8.70;2.50;;;13.00;99.90;;;;;;5073549;28;20260;-74
2021/05/15 02:11:16;;;;;;;3.80;2.03;;;13.00;99.90;;;;;;5073018;28;20293;-74
2021/05/15 02:13:44;;;;;;;5.40;2.40;;;12.90;99.90;;;;;;5073322;28;20213;-73
2021/05/15 02:16:11;;;;;;;6.13;1.98;;;12.90;99.90;;;;;;5072915;28;20228;-75
2021/05/15 02:18:38;;;;;;;2.90;1.97;;;12.80;99.90;;;;;;5073153;28;20206;-74
2021/05/15 02:21:05;;;;;;;3.93;2.20;;;12.80;99.90;;;;;;5059057;28;20293;-75
2021/05/15 02:23:32;;;;;;;2.07;1.87;;;12.70;99.90;;;;;;5073013;28;20240;-74
2021/05/15 02:25:59;;;;;;;4.28;2.05;;;12.80;99.90;;;;;;5072661;28;20230;-75
2021/05/15 02:28:25;;;;;;;5.50;1.58;;;12.70;99.90;;;;;;5073234;28;20233;-75
2021/05/15 02:30:53;;;;;;;6.80;2.65;;;12.60;99.90;;;;;;5072582;28;20206;-76
2021/05/15 02:33:20;;;;;;;4.20;2.70;;;12.70;99.90;;;;;;5072949;28;20206;-76
2021/05/15 02:35:47;;;;;;;3.03;2.17;;;12.80;99.90;;;;;;5072754;28;20210;-76
2021/05/15 02:38:16;;;;;;;5.55;2.13;;;12.60;99.90;;;;;;5065548;28;20218;-76
2021/05/15 02:40:44;;;;;;;5.47;1.95;;;12.70;99.90;;;;;;5066938;28;20210;-76
2021/05/15 02:43:11;;;;;;;2.50;1.80;;;12.60;99.90;;;;;;5072421;28;20512;-76
2021/05/15 02:45:37;;;;;;;3.50;2.00;;;12.70;99.90;;;;;;5072434;28;20651;-75
2021/05/15 02:48:06;;;;;;;1.75;1.58;;;12.60;99.90;;;;;;5071745;28;20202;-76
2021/05/15 02:50:32;;;;;;;4.22;1.73;;;12.60;99.90;;;;;;5072527;28;20233;-75
2021/05/15 02:52:59;;;;;;;2.88;1.83;;;12.60;99.90;;;;;;5071760;28;20209;-76
2021/05/15 02:55:26;;;;;;;2.40;1.80;;;12.50;99.90;;;;;;5071528;28;20229;-75
2021/05/15 02:57:54;;;;;;;6.13;2.10;;;12.40;99.90;;;;;;5072142;28;20206;-76
2021/05/15 03:00:23;;;;;;;3.67;1.85;;;12.40;99.90;;;;;;5072500;28;20209;-77
2021/05/15 03:02:49;;;;;;;4.20;2.15;;;12.50;99.90;;;;;;5072403;28;20213;-76
2021/05/15 03:05:21;;;;;;;5.17;2.17;;;12.50;99.90;;;;;;5072280;28;20209;-75
2021/05/15 03:07:47;;;;;;;2.80;1.60;;;12.40;99.90;;;;;;5072761;28;20673;-74
2021/05/15 03:10:14;;;;;;;3.22;1.70;;;12.50;99.90;;;;;;5071865;28;20206;-74
2021/05/15 03:12:41;;;;;;;4.55;1.83;;;12.50;99.90;;;;;;5072422;28;20625;-73
2021/05/15 03:15:11;;;;;;;6.78;2.28;;;12.40;99.90;;;;;;5071761;28;20206;-73
2021/05/15 03:17:38;;;;;;;3.17;2.45;;;12.40;99.90;;;;;;5071758;28;20285;-72
2021/05/15 03:20:06;;;;;;;6.88;2.60;;;12.50;99.90;;;;;;5071616;28;20203;-73
2021/05/15 03:22:34;;;;;;;2.07;1.87;;;12.40;99.90;;;;;;5072298;28;20202;-74
2021/05/15 03:25:00;;;;;;;2.80;2.27;;;12.50;99.90;;;;;;5071482;28;20218;-73
2021/05/15 03:27:27;;;;;;;3.23;1.87;;;12.60;99.90;;;;;;5071558;28;20234;-73
2021/05/15 03:29:53;;;;;;;3.25;1.60;;;12.50;99.90;;;;;;5071335;28;20694;-72
2021/05/15 03:32:20;;;;;;;15.40;1.92;;;12.40;99.90;;;;;;5071927;28;20202;-73
2021/05/15 03:34:47;;;;;;;3.65;2.50;;;12.50;99.90;;;;;;5072279;28;20210;-72
2021/05/15 03:37:13;;;;;;;3.83;1.60;;;12.60;99.90;;;;;;5071103;28;20580;-74
2021/05/15 03:39:41;;;;;;;5.13;2.28;;;12.50;99.90;;;;;;5071931;28;20232;-74
2021/05/15 03:42:07;;;;;;;5.30;2.28;;;12.40;99.90;;;;;;5071250;28;20213;-72
2021/05/15 03:44:34;;;;;;;8.25;1.70;;;12.50;99.90;;;;;;5071175;28;20554;-73
2021/05/15 03:47:00;;;;;;;4.30;2.20;;;12.50;99.90;;;;;;5071227;28;20226;-73
2021/05/15 03:49:27;;;;;;;6.27;1.80;;;12.40;99.90;;;;;;5071232;28;20206;-73
2021/05/15 03:51:53;;;;;;;5.50;2.43;;;12.40;99.90;;;;;;5071228;28;20221;-73
2021/05/15 03:54:20;;;;;;;4.88;1.90;;;12.30;99.90;;;;;;5071523;28;20264;-73
2021/05/15 03:56:47;;;;;;;5.97;2.60;;;12.40;99.90;;;;;;5071444;28;20206;-71
2021/05/15 03:59:14;;;;;;;6.45;1.77;;;12.30;99.90;;;;;;5070457;28;20210;-72
2021/05/15 04:01:40;;;;;;;3.40;1.80;;;12.30;99.90;;;;;;5071165;28;20206;-72
2021/05/15 04:04:07;;;;;;;4.15;2.10;;;12.40;99.90;;;;;;5071071;28;20206;-73
2021/05/15 04:06:33;;;;;;;5.87;2.17;;;12.30;99.90;;;;;;5070617;28;20687;-73
2021/05/15 04:09:00;;;;;;;5.40;2.45;;;12.40;99.90;;;;;;5070909;28;20209;-72
2021/05/15 04:11:33;;;;;;;4.03;2.20;;;12.50;99.90;;;;;;5071219;28;20251;-74
2021/05/15 04:14:09;;;;;;;3.43;1.83;;;12.30;99.90;;;;;;5070482;28;20210;-72
2021/05/15 04:16:48;;;;;;;2.97;1.63;;;12.30;99.90;;;;;;5073123;28;20574;-71
2021/05/15 04:19:14;;;;;;;4.87;2.27;;;12.20;99.90;;;;;;5064709;28;20220;-71
2021/05/15 04:21:42;;;;;;;4.87;2.30;;;12.30;99.90;;;;;;5070058;28;20206;-72
2021/05/15 04:24:10;;;;;;;6.20;1.73;;;12.30;99.90;;;;;;5056773;28;20686;-71
2021/05/15 04:26:36;;;;;;;4.37;1.80;;;12.40;99.90;;;;;;5071070;28;20241;-71
2021/05/15 04:29:05;;;;;;;2.75;1.67;;;12.40;99.90;;;;;;5069962;28;20670;-71
2021/05/15 04:31:32;;;;;;;2.70;1.43;;;12.40;99.90;;;;;;5070984;28;20206;-71
2021/05/15 04:33:58;;;;;;;2.17;1.67;;;12.30;99.90;;;;;;5068327;28;20197;-70
2021/05/15 04:36:25;;;;;;;3.53;2.13;;;12.30;99.90;;;;;;5060011;28;20202;-70
2021/05/15 04:38:52;;;;;;;3.78;1.83;;;12.30;99.90;;;;;;5070197;28;20206;-71
2021/05/15 04:41:19;;;;;;;4.45;2.17;;;12.40;99.90;;;;;;5070913;28;20198;-71
2021/05/15 04:43:46;;;;;;;5.45;2.03;;;12.40;99.90;;;;;;5070687;28;20289;-72
2021/05/15 04:46:13;;;;;;;3.92;1.20;;;12.50;99.90;;;;;;5070042;28;20232;-71
2021/05/15 04:48:43;;;;;;;4.55;1.65;;;12.50;99.90;;;;;;5070537;28;20210;-70
2021/05/15 04:51:10;;;;;;;3.80;1.70;;;12.60;99.90;;;;;;5069842;28;20217;-72
2021/05/15 04:53:37;;;;;;;4.60;2.28;;;12.60;99.90;;;;;;5071037;28;20209;-72
2021/05/15 04:56:04;;;;;;;3.50;2.08;;;12.60;99.90;;;;;;5069092;28;20677;-71
2021/05/15 04:58:30;;;;;;;5.47;1.98;;;12.60;99.90;;;;;;5070079;28;20236;-70
2021/05/15 05:00:56;;;;;;;5.13;2.13;;;12.60;99.90;;;;;;5069702;28;20712;-70
2021/05/15 05:03:24;;;;;;;4.85;1.98;;;12.50;99.90;;;;;;5070546;28;20678;-70
2021/05/15 05:05:50;;;;;;;3.40;1.98;;;12.40;99.90;;;;;;5070245;28;20237;-71
2021/05/15 05:08:17;;;;;;;2.70;1.88;;;12.50;99.90;;;;;;5070145;28;20206;-69
2021/05/15 05:10:44;;;;;;;7.03;2.42;;;12.60;99.90;;;;;;5066717;28;20297;-69
2021/05/15 05:13:10;;;;;;;5.32;1.80;;;12.50;99.90;;;;;;5063954;28;20705;-69
2021/05/15 05:15:37;;;;;;;4.32;1.98;;;12.50;99.90;;;;;;5056256;28;20696;-70
2021/05/15 05:18:03;;;;;;;2.53;1.77;;;12.50;99.90;;;;;;5070124;28;20202;-70
2021/05/15 05:20:31;;;;;;;4.33;2.00;;;12.40;99.90;;;;;;5073845;28;20245;-69
2021/05/15 05:22:57;;;;;;;3.27;1.97;;;12.30;99.90;;;;;;5074024;28;20209;-71
2021/05/15 05:25:24;;;;;;;3.17;2.53;;;12.30;99.90;;;;;;5073917;28;20217;-70
2021/05/15 05:27:51;;;;;;;7.70;2.03;;;12.40;99.90;;;;;;5074749;28;20206;-70
2021/05/15 05:30:19;;;;;;;5.80;2.25;;;12.60;99.90;;;;;;5073798;28;20639;-69
2021/05/15 05:32:46;;;;;;;3.40;1.67;;;12.60;99.90;;;;;;5074105;28;20206;-71
2021/05/15 05:35:13;;;;;;;3.87;2.03;;;12.60;99.90;;;;;;5073872;28;20213;-71
2021/05/15 05:37:42;;;;;;;3.67;2.40;;;12.70;99.90;;;;;;5074020;28;20201;-70
2021/05/15 05:40:10;;;;;;;4.80;2.17;;;12.70;99.90;;;;;;5073890;28;20214;-73
2021/05/15 05:42:37;;;;;;;5.97;2.43;;;12.70;99.90;;;;;;5073936;28;20291;-73
2021/05/15 05:45:05;;;;;;;5.32;1.88;;;12.70;99.90;;;;;;5073412;28;20688;-72
2021/05/15 05:47:31;;;;;;;3.42;1.88;;;12.80;99.90;;;;;;5073860;28;20234;-69
2021/05/15 05:49:58;;;;;;;2.33;1.67;;;12.60;99.90;;;;;;5073388;28;20198;-69
2021/05/15 05:52:24;;;;;;;3.20;1.90;;;12.70;99.90;;;;;;5073400;28;20733;-74
2021/05/15 05:54:52;;;;;;;5.18;2.22;;;12.90;99.90;;;;;;5073628;28;20626;-71
2021/05/15 05:57:18;;;;;;;2.53;2.08;;;12.90;99.90;;;;;;5073915;28;20209;-69
2021/05/15 05:59:45;;;;;;;2.70;1.77;;;13.10;99.90;;;;;;5073347;28;20696;-70
2021/05/15 06:02:11;;;;;;;3.30;1.57;;;13.10;99.90;;;;;;5073246;28;20689;-71
2021/05/15 06:04:38;;;;;;;2.70;1.52;;;13.10;99.90;;;;;;5073833;28;20216;-69
2021/05/15 06:07:04;;;;;;;4.22;1.90;;;13.00;99.90;;;;;;5072609;28;20273;-72
2021/05/15 06:09:31;;;;;;;2.33;1.83;;;13.10;99.90;;;;;;5073638;28;20236;-70
2021/05/15 06:11:58;;;;;;;5.43;1.60;;;13.30;99.90;;;;;;5062837;28;20244;-70
2021/05/15 06:14:24;;;;;;;2.47;1.70;;;13.30;99.90;;;;;;5073509;28;20217;-74
2021/05/15 06:16:51;;;;;;;5.25;1.83;;;13.20;99.90;;;;;;5073204;28;20238;-70
2021/05/15 06:19:17;;;;;;;3.97;2.42;;;13.30;99.90;;;;;;5073512;28;20209;-74
2021/05/15 06:21:44;;;;;;;8.60;2.15;;;13.30;99.90;;;;;;5073115;28;20206;-74
2021/05/15 06:24:12;;;;;;;5.65;1.80;;;13.30;99.90;;;;;;5072762;28;20214;-70
2021/05/15 06:26:38;;;;;;;2.65;1.38;;;13.50;99.90;;;;;;5072895;28;20313;-74
2021/05/15 06:29:06;;;;;;;3.30;1.80;;;13.70;99.90;;;;;;5067587;28;20214;-71
2021/05/15 06:31:32;;;;;;;3.22;2.17;;;13.80;99.90;;;;;;5064456;28;20206;-73
2021/05/15 06:33:59;;;;;;;4.85;2.53;;;14.00;99.90;;;;;;5071273;28;20202;-72
2021/05/15 06:36:25;;;;;;;2.78;1.80;;;14.10;99.90;;;;;;5072580;28;20210;-70
2021/05/15 06:38:52;;;;;;;1.73;1.60;;;14.30;99.90;;;;;;5072702;28;20206;-70
2021/05/15 06:41:18;;;;;;;3.95;1.77;;;14.50;99.90;;;;;;5072917;28;20579;-71
2021/05/15 06:43:45;;;;;;;7.97;2.40;;;14.60;99.90;;;;;;5072611;28;20595;-74
2021/05/15 06:46:12;;;;;;;3.65;1.92;;;14.60;99.90;;;;;;5072244;28;20238;-74
2021/05/15 06:48:38;;;;;;;5.78;2.22;;;14.70;99.90;;;;;;5072885;28;20202;-74
2021/05/15 06:51:05;;;;;;;6.15;1.45;;;14.80;99.90;;;;;;5068614;28;20214;-73
2021/05/15 06:53:31;;;;;;;5.88;1.65;;;14.60;99.90;;;;;;5064949;28;20213;-72
2021/05/15 06:55:58;;;;;;;2.70;1.45;;;14.70;99.90;;;;;;5071467;28;20214;-73
2021/05/15 06:58:24;;;;;;;2.50;1.58;;;14.50;99.90;;;;;;5069971;28;20209;-71
2021/05/15 07:00:51;;;;;;;3.47;2.10;;;14.30;99.90;;;;;;5072920;28;20213;-72
2021/05/15 07:03:18;;;;;;;4.07;2.05;;;14.10;99.90;;;;;;5061616;28;20206;-72
2021/05/15 07:05:45;;;;;;;7.10;1.70;;;14.00;99.90;;;;;;5070917;28;20228;-73
2021/05/15 07:08:13;;;;;;;4.70;1.95;;;14.00;99.90;;;;;;5063034;28;21078;-72
2021/05/15 07:10:39;;;;;;;3.42;1.50;;;14.00;99.90;;;;;;5072381;28;20252;-72
2021/05/15 07:13:06;;;;;;;2.65;1.33;;;14.20;99.90;;;;;;5071662;28;20202;-72
2021/05/15 07:15:32;;;;;;;4.15;1.83;;;14.20;99.90;;;;;;5071300;28;20210;-73
2021/05/15 07:18:01;;;;;;;2.63;2.38;;;14.30;99.90;;;;;;5070850;28;20686;-72
2021/05/15 07:20:28;;;;;;;3.38;1.63;;;14.40;99.90;;;;;;5060761;28;20659;-72
2021/05/15 07:22:55;;;;;;;5.50;1.80;;;14.60;99.90;;;;;;5062061;28;20695;-73
2021/05/15 07:25:21;;;;;;;4.45;2.13;;;14.70;99.90;;;;;;5069291;28;20214;-71
2021/05/15 07:27:48;;;;;;;6.45;2.35;;;14.70;99.90;;;;;;5066518;28;20234;-75
2021/05/15 07:30:17;;;;;;;3.30;2.10;;;14.80;99.90;;;;;;5065567;28;20241;-74
2021/05/15 07:32:44;;;;;;;3.28;2.55;;;14.90;99.90;;;;;;5071990;28;20245;-71
2021/05/15 07:35:12;;;;;;;3.53;1.60;;;14.90;99.90;;;;;;5071350;28;20335;-75
2021/05/15 07:37:39;;;;;;;2.20;1.67;;;14.90;99.90;;;;;;5070660;28;20202;-71
2021/05/15 07:40:07;;;;;;;4.88;2.42;;;14.80;99.90;;;;;;5064620;28;20214;-71
2021/05/15 07:42:33;;;;;;;3.72;1.77;;;14.80;99.90;;;;;;5064774;28;20281;-71
2021/05/15 07:45:00;;;;;;;4.82;2.13;;;15.00;99.90;;;;;;5060747;28;20679;-70
2021/05/15 07:47:29;;;;;;;6.55;3.65;;;15.00;99.90;;;;;;5058056;28;20233;-72
2021/05/15 07:49:56;;;;;;;2.67;1.70;;;15.00;99.90;;;;;;5070478;28;20207;-72
2021/05/15 07:52:22;;;;;;;6.18;2.78;;;15.00;99.90;;;;;;5066731;28;20597;-72
2021/05/15 07:54:52;;;;;;;4.10;1.73;;;15.10;99.90;;;;;;5070112;28;20749;-72
2021/05/15 07:57:18;;;;;;;4.45;1.73;;;15.00;99.90;;;;;;5071491;28;20293;-72
2021/05/15 07:59:45;;;;;;;2.13;1.92;;;15.00;99.90;;;;;;5070975;28;20621;-73
2021/05/15 08:02:11;;;;;;;4.20;1.98;;;14.90;99.90;;;;;;5066125;28;20236;-72
2021/05/15 08:04:38;;;;;;;2.80;1.88;;;14.80;99.90;;;;;;5065072;28;20206;-73
2021/05/15 08:07:04;;;;;;;3.35;1.95;;;14.80;99.90;;;;;;5059009;28;20237;-73
2021/05/15 08:09:31;;;;;;;5.97;2.47;;;14.80;99.90;;;;;;5060872;28;20701;-72
2021/05/15 08:11:58;;;;;;;4.78;2.85;;;14.80;99.90;;;;;;5070423;28;20601;-73
2021/05/15 08:14:25;;;;;;;3.35;2.35;;;14.80;99.90;;;;;;5071115;28;20217;-72
2021/05/15 08:16:53;;;;;;;9.15;4.13;;;14.90;99.90;;;;;;5072962;28;20275;-73
2021/05/15 08:19:19;;;;;;;5.45;2.75;;;14.70;99.90;;;;;;5071277;28;20356;-72
2021/05/15 08:21:46;;;;;;;7.28;3.05;;;14.70;99.90;;;;;;5070599;28;20214;-73
2021/05/15 08:24:13;;;;;;;3.65;2.40;;;14.70;99.90;;;;;;5070536;28;20218;-72
2021/05/15 08:26:40;;;;;;;5.53;2.30;;;14.70;99.90;;;;;;5070749;28;20237;-73
2021/05/15 08:29:11;;;;;;;7.65;4.88;;;14.80;99.90;;;;;;5070232;28;20233;-71
2021/05/15 08:31:38;;;;;;;2.47;2.20;;;15.00;99.90;;;;;;5066306;28;20218;-73
2021/05/15 08:34:05;;;;;;;2.47;2.17;;;15.10;99.90;;;;;;5070204;28;20207;-72
2021/05/15 08:36:31;;;;;;;2.25;1.92;;;15.40;99.90;;;;;;5070623;28;20210;-72
2021/05/15 08:38:58;;;;;;;4.65;1.85;;;15.30;99.90;;;;;;5068394;28;20213;-72
2021/05/15 08:41:25;;;;;;;3.88;2.25;;;15.20;99.90;;;;;;5058908;28;20297;-72
2021/05/15 08:43:54;;;;;;;4.18;1.98;;;15.00;99.90;;;;;;5070232;28;20213;-72
2021/05/15 08:46:24;;;;;;;2.47;1.55;;;14.70;99.90;;;;;;5070450;28;20312;-72
2021/05/15 08:48:51;;;;;;;2.83;2.40;;;14.60;99.90;;;;;;5070912;28;20311;-71
2021/05/15 08:51:20;;;;;;;2.55;2.05;;;14.70;99.90;;;;;;5055655;28;20662;-70
2021/05/15 08:53:47;;;;;;;5.97;1.77;;;14.60;99.90;;;;;;5069931;28;20217;-72
2021/05/15 08:56:13;;;;;;;4.30;2.03;;;14.50;99.90;;;;;;5070122;28;20569;-74
2021/05/15 08:58:40;;;;;;;3.70;1.73;;;14.60;99.90;;;;;;5070614;28;20198;-72
2021/05/15 09:01:14;;;;;;;3.63;2.25;;;14.60;99.90;;;;;;5069988;28;20206;-72
2021/05/15 09:03:41;;;;;;;4.45;2.25;;;14.40;99.90;;;;;;5070361;28;20648;-73
2021/05/15 09:06:08;;;;;;;2.42;1.60;;;14.30;99.90;;;;;;5070150;28;20241;-73
2021/05/15 09:08:36;;;;;;;5.88;2.05;;;14.30;99.90;;;;;;5069465;28;20303;-73
2021/05/15 09:11:04;;;;;;;2.65;2.05;;;14.40;99.90;;;;;;5064199;28;20206;-74
2021/05/15 09:13:31;;;;;;;3.67;1.73;;;14.60;99.90;;;;;;5068015;28;20324;-73
2021/05/15 09:15:58;;;;;;;4.60;2.75;;;14.60;99.90;;;;;;5069005;28;20202;-73
2021/05/15 09:18:26;;;;;;;4.35;2.28;;;14.80;99.90;;;;;;5070141;28;20207;-74
2021/05/15 09:20:55;;;;;;;3.47;2.22;;;15.10;99.90;;;;;;5062318;28;20217;-72
2021/05/15 09:23:24;;;;;;;3.10;2.08;;;15.40;99.90;;;;;;5070380;28;20251;-73
2021/05/15 09:25:58;;;;;;;2.00;1.85;;;15.50;99.90;;;;;;5057995;28;20218;-73
2021/05/15 09:28:33;;;;;;;6.07;2.28;;;15.70;99.90;;;;;;5059116;28;20210;-74
2021/05/15 09:31:16;;;;;;;2.40;2.17;;;15.50;99.90;;;;;;5058452;28;20582;-74
2021/05/15 09:33:44;;;;;;;2.60;2.25;;;15.50;99.90;;;;;;5061460;28;20653;-74
2021/05/15 09:36:16;;;;;;;6.47;2.97;;;15.30;99.90;;;;;;5055262;28;20206;-75
2021/05/15 09:38:43;;;;;;;4.25;3.60;;;15.20;99.90;;;;;;5054085;28;20206;-74
2021/05/15 09:41:10;;;;;;;6.90;5.50;;;15.20;99.90;;;;;;5049198;28;20207;-74
2021/05/15 09:43:37;;;;;;;9.77;6.00;;;15.30;99.90;;;;;;5053459;28;20643;-75
2021/05/15 09:46:03;;;;;;;6.97;4.28;;;15.50;99.90;;;;;;5052842;28;20203;-74
2021/05/15 09:48:36;;;;;;;6.95;3.65;;;15.70;99.90;;;;;;5049833;28;20590;-75
2021/05/15 09:51:13;;;;;;;7.75;3.97;;;15.40;99.90;;;;;;5058505;28;20203;-74
2021/05/15 09:53:41;;;;;;;3.83;3.40;;;15.30;99.90;;;;;;5063077;28;20206;-75
2021/05/15 09:56:07;;;;;;;6.18;2.65;;;15.20;99.90;;;;;;5061510;28;20203;-75
2021/05/15 09:58:34;;;;;;;3.53;3.17;;;15.20;99.90;;;;;;5069638;28;20209;-75
2021/05/15 10:01:00;;;;;;;5.43;2.80;;;15.50;99.90;;;;;;5069252;28;20202;-76
2021/05/15 10:03:30;;;;;;;3.58;2.65;;;15.50;99.90;;;;;;5069579;28;20208;-75
2021/05/15 10:06:05;;;;;;;2.47;2.38;;;15.70;99.90;;;;;;5071426;28;20896;-74
2021/05/15 10:08:32;;;;;;;3.35;2.08;;;15.80;99.90;;;;;;5073454;28;20198;-75
2021/05/15 10:11:01;;;;;;;6.65;2.53;;;16.30;99.90;;;;;;5073158;28;20214;-75
2021/05/15 10:13:27;;;;;;;2.60;2.40;;;16.20;99.90;;;;;;5072826;28;20214;-74
2021/05/15 10:15:54;;;;;;;5.40;2.35;;;16.20;99.90;;;;;;5069552;28;20214;-75
2021/05/15 10:18:21;;;;;;;4.80;2.60;;;16.40;99.90;;;;;;5070253;28;20206;-75
2021/05/15 10:20:48;;;;;;;5.70;2.53;;;16.40;99.90;;;;;;5069990;28;20343;-75
2021/05/15 10:23:20;;;;;;;2.60;2.05;;;16.50;99.90;;;;;;5066447;28;20217;-76
2021/05/15 10:25:48;;;;;;;4.32;2.22;;;16.50;99.90;;;;;;5066791;28;20218;-75
2021/05/15 10:28:27;;;;;;;4.65;2.17;;;16.20;99.90;;;;;;5058391;28;20239;-76
2021/05/15 10:31:07;;;;;;;3.75;1.98;;;15.90;99.90;;;;;;5072695;28;20704;-76
2021/05/15 10:33:35;;;;;;;2.15;1.95;;;16.10;99.90;;;;;;5072490;28;20225;-73
2021/05/15 10:36:04;;;;;;;10.23;5.25;;;16.20;99.90;;;;;;5053935;28;20199;-74
2021/05/15 10:38:32;;;;;;;7.30;4.90;;;16.60;99.90;;;;;;5069561;28;20279;-73
2021/05/15 10:41:10;;;;;;;2.33;2.05;;;16.80;99.90;;;;;;5072299;28;20684;-73
2021/05/15 10:43:39;;;;;;;3.60;2.22;;;17.20;99.90;;;;;;5072424;28;20206;-73
2021/05/15 10:46:31;;;;;;;4.53;1.90;;;17.20;99.90;;;;;;5072261;28;20249;-73
2021/05/15 10:49:08;;;;;;;2.30;2.08;;;16.80;99.90;;;;;;5062271;28;20280;-73
2021/05/15 10:51:41;;;;;;;4.30;2.15;;;16.70;99.90;;;;;;5072616;28;20221;-73
2021/05/15 10:54:10;;;;;;;4.78;1.80;;;16.60;99.90;;;;;;5072198;28;20209;-73
2021/05/15 10:56:36;;;;;;;2.95;1.60;;;16.30;99.90;;;;;;5072055;28;20210;-72
2021/05/15 10:59:09;;;;;;;3.22;1.95;;;16.10;99.90;;;;;;5072158;28;20218;-73
2021/05/15 11:01:53;;;;;;;4.72;2.08;;;16.20;99.90;;;;;;5072249;28;20206;-72
2021/05/15 11:04:25;;;;;;;4.90;1.80;;;16.40;99.90;;;;;;5072621;28;20209;-72
2021/05/15 11:07:03;;;;;;;6.88;2.03;;;16.50;99.90;;;;;;5072636;28;20359;-73
2021/05/15 11:09:30;;;;;;;3.63;1.85;;;16.30;99.90;;;;;;5072386;28;20210;-73
2021/05/15 11:12:06;;;;;;;2.63;1.65;;;16.20;99.90;;;;;;5071805;28;20199;-73
2021/05/15 11:14:35;;;;;;;2.33;1.67;;;16.40;99.90;;;;;;5072215;28;20206;-74
2021/05/15 11:17:18;;;;;;;4.43;2.58;;;16.80;99.90;;;;;;5071081;28;20202;-74
2021/05/15 11:19:56;;;;;;;3.60;2.15;;;17.50;99.90;;;;;;5059326;28;20210;-74
2021/05/15 11:22:36;;;;;;;2.50;1.98;;;17.50;99.90;;;;;;5058831;28;20206;-74
2021/05/15 11:25:16;;;;;;;2.10;1.95;;;17.30;99.90;;;;;;5064556;28;20214;-73
2021/05/15 11:27:45;;;;;;;4.88;2.97;;;17.20;99.90;;;;;;5063703;28;20229;-72
2021/05/15 11:30:17;;;;;;;2.72;1.63;;;17.40;99.90;;;;;;5071194;28;20297;-73
2021/05/15 11:32:58;;;;;;;2.58;2.38;;;17.60;99.90;;;;;;5058831;28;20206;-73
2021/05/15 11:35:25;;;;;;;2.38;1.90;;;18.10;99.90;;;;;;5069346;28;20198;-73
2021/05/15 11:38:01;;;;;;;2.58;1.95;;;18.20;99.90;;;;;;5066303;28;20303;-73
2021/05/15 11:40:27;;;;;;;2.28;2.08;;;18.10;99.90;;;;;;5072358;28;20208;-73
2021/05/15 11:42:56;;;;;;;3.25;2.50;;;18.30;99.90;;;;;;5071511;28;20593;-73
2021/05/15 11:45:25;;;;;;;5.95;2.90;;;17.90;99.90;;;;;;5071680;28;20209;-73
2021/05/15 11:48:10;;;;;;;6.53;3.92;;;17.80;99.90;;;;;;5071387;28;20240;-72
2021/05/15 11:50:38;;;;;;;2.88;2.35;;;18.10;99.90;;;;;;5071699;28;20210;-73
2021/05/15 11:53:05;;;;;;;4.65;2.67;;;18.20;99.90;;;;;;5070876;28;20689;-72
2021/05/15 11:55:33;;;;;;;2.97;2.45;;;18.10;99.90;;;;;;5068538;28;20198;-72
2021/05/15 11:58:01;;;;;;;3.53;3.10;;;17.80;99.90;;;;;;5070767;28;20210;-71
2021/05/15 12:00:30;;;;;;;11.75;3.30;;;18.10;99.90;;;;;;5071300;28;20206;-72
2021/05/15 12:02:56;;;;;;;6.75;2.45;;;18.20;99.90;;;;;;5070859;28;20601;-72
2021/05/15 12:05:23;;;;;;;2.90;2.58;;;18.30;99.90;;;;;;5071071;28;20202;-72
2021/05/15 12:07:51;;;;;;;4.30;2.30;;;18.30;99.90;;;;;;5071397;28;20775;-72
2021/05/15 12:10:19;;;;;;;3.95;2.50;;;18.50;99.90;;;;;;5070559;28;20202;-73
2021/05/15 12:12:56;;;;;;;3.20;1.98;;;18.60;99.90;;;;;;5071241;28;20206;-73
2021/05/15 12:15:24;;;;;;;3.00;2.38;;;18.00;99.90;;;;;;5071179;28;20244;-73
2021/05/15 12:17:52;;;;;;;2.58;2.38;;;17.70;99.90;;;;;;5064892;28;20210;-73
2021/05/15 12:20:29;;;;;;;2.50;2.30;;;17.50;99.90;;;;;;5065476;28;20629;-73
2021/05/15 12:23:15;;;;;;;4.82;2.65;;;17.40;99.90;;;;;;5068664;28;20198;-73
2021/05/15 12:25:44;;;;;;;2.80;1.85;;;17.30;99.90;;;;;;5068782;28;20217;-73
2021/05/15 12:28:21;;;;;;;4.93;1.88;;;17.10;99.90;;;;;;5070156;28;20225;-75
2021/05/15 12:30:48;;;;;;;2.28;1.85;;;16.90;99.90;;;;;;5071001;28;20232;-74
2021/05/15 12:33:19;;;;;;;3.58;1.98;;;17.10;99.90;;;;;;5070497;28;20209;-73
2021/05/15 12:36:01;;;;;;;2.97;1.65;;;17.40;99.90;;;;;;5065335;28;20210;-72
2021/05/15 12:38:28;;;;;;;3.35;1.90;;;17.30;99.90;;;;;;5057036;28;20256;-73
2021/05/15 12:41:06;;;;;;;3.33;1.60;;;17.20;99.90;;;;;;5060626;28;20202;-73
2021/05/15 12:43:33;;;;;;;1.85;1.58;;;17.30;99.90;;;;;;5052808;28;20584;-73
2021/05/15 12:46:08;;;;;;;2.80;2.03;;;17.30;99.90;;;;;;5052004;28;20553;-75
2021/05/15 12:48:36;;;;;;;2.55;1.98;;;17.30;99.90;;;;;;5050307;28;20677;-73
2021/05/15 12:51:04;;;;;;;2.53;2.00;;;17.20;99.90;;;;;;5054953;28;20257;-72